sensor_id;sensor_type;location;lat;lon;timestamp;P1;durP1;ratioP1;P2;durP2;ratioP2
45065;SDS011;30830;53.704;10.004;2023-04-24T00:00:32;5.80;;;5.25;;
45065;SDS011;30830;53.704;10.004;2023-04-24T00:02:57;6.65;;;4.75;;
45065;SDS011;30830;53.704;10.004;2023-04-24T00:05:23;5.18;;;4.68;;
45065;SDS011;30830;53.704;10.004;2023-04-24T00:07:49;5.13;;;4.45;;
45065;SDS011;30830;53.704;10.004;2023-04-24T00:10:19;5.47;;;4.70;;
45065;SDS011;30830;53.704;10.004;2023-04-24T00:12:45;4.95;;;4.38;;
45065;SDS011;30830;53.704;10.004;2023-04-24T00:15:10;5.45;;;4.90;;
45065;SDS011;30830;53.704;10.004;2023-04-24T00:17:36;5.35;;;3.83;;
45065;SDS011;30830;53.704;10.004;2023-04-24T00:20:02;5.53;;;5.03;;
45065;SDS011;30830;53.704;10.004;2023-04-24T00:22:29;6.97;;;5.13;;
45065;SDS011;30830;53.704;10.004;2023-04-24T00:24:55;5.25;;;4.75;;
45065;SDS011;30830;53.704;10.004;2023-04-24T00:27:21;5.72;;;5.15;;
45065;SDS011;30830;53.704;10.004;2023-04-24T00:29:48;5.88;;;5.05;;
45065;SDS011;30830;53.704;10.004;2023-04-24T00:32:13;5.80;;;4.95;;
45065;SDS011;30830;53.704;10.004;2023-04-24T00:34:40;6.25;;;5.05;;
45065;SDS011;30830;53.704;10.004;2023-04-24T00:37:06;5.85;;;5.20;;
45065;SDS011;30830;53.704;10.004;2023-04-24T00:39:32;5.07;;;4.57;;
45065;SDS011;30830;53.704;10.004;2023-04-24T00:41:57;5.30;;;4.82;;
45065;SDS011;30830;53.704;10.004;2023-04-24T00:44:24;5.00;;;4.32;;
45065;SDS011;30830;53.704;10.004;2023-04-24T00:46:50;5.35;;;4.75;;
45065;SDS011;30830;53.704;10.004;2023-04-24T00:49:19;5.30;;;4.80;;
45065;SDS011;30830;53.704;10.004;2023-04-24T00:51:45;5.40;;;4.90;;
45065;SDS011;30830;53.704;10.004;2023-04-24T00:54:12;5.50;;;5.00;;
45065;SDS011;30830;53.704;10.004;2023-04-24T00:56:38;6.25;;;4.50;;
45065;SDS011;30830;53.704;10.004;2023-04-24T00:59:04;5.82;;;5.00;;
45065;SDS011;30830;53.704;10.004;2023-04-24T01:01:30;4.72;;;4.30;;
45065;SDS011;30830;53.704;10.004;2023-04-24T01:03:56;5.13;;;4.63;;
45065;SDS011;30830;53.704;10.004;2023-04-24T01:06:22;5.43;;;4.88;;
45065;SDS011;30830;53.704;10.004;2023-04-24T01:08:52;5.53;;;4.70;;
45065;SDS011;30830;53.704;10.004;2023-04-24T01:11:18;5.32;;;4.75;;
45065;SDS011;30830;53.704;10.004;2023-04-24T01:13:44;5.95;;;5.30;;
45065;SDS011;30830;53.704;10.004;2023-04-24T01:16:10;5.85;;;5.15;;
45065;SDS011;30830;53.704;10.004;2023-04-24T01:18:36;5.20;;;4.70;;
45065;SDS011;30830;53.704;10.004;2023-04-24T01:21:03;5.30;;;4.80;;
45065;SDS011;30830;53.704;10.004;2023-04-24T01:23:29;6.10;;;5.60;;
45065;SDS011;30830;53.704;10.004;2023-04-24T01:25:55;7.22;;;5.75;;
45065;SDS011;30830;53.704;10.004;2023-04-24T01:28:21;6.03;;;5.18;;
45065;SDS011;30830;53.704;10.004;2023-04-24T01:30:47;6.07;;;5.47;;
45065;SDS011;30830;53.704;10.004;2023-04-24T01:33:12;5.22;;;4.70;;
45065;SDS011;30830;53.704;10.004;2023-04-24T01:35:38;6.60;;;5.03;;
45065;SDS011;30830;53.704;10.004;2023-04-24T01:38:05;6.20;;;5.45;;
45065;SDS011;30830;53.704;10.004;2023-04-24T01:40:30;5.45;;;4.63;;
45065;SDS011;30830;53.704;10.004;2023-04-24T01:42:57;5.38;;;4.88;;
45065;SDS011;30830;53.704;10.004;2023-04-24T01:45:23;5.15;;;4.38;;
45065;SDS011;30830;53.704;10.004;2023-04-24T01:47:49;7.35;;;4.65;;
45065;SDS011;30830;53.704;10.004;2023-04-24T01:50:15;6.45;;;4.78;;
45065;SDS011;30830;53.704;10.004;2023-04-24T01:52:41;5.00;;;4.60;;
45065;SDS011;30830;53.704;10.004;2023-04-24T01:55:06;5.18;;;4.68;;
45065;SDS011;30830;53.704;10.004;2023-04-24T01:57:32;6.22;;;4.78;;
45065;SDS011;30830;53.704;10.004;2023-04-24T01:59:59;5.07;;;4.57;;
45065;SDS011;30830;53.704;10.004;2023-04-24T02:02:25;6.00;;;4.70;;
45065;SDS011;30830;53.704;10.004;2023-04-24T02:04:52;5.60;;;5.10;;
45065;SDS011;30830;53.704;10.004;2023-04-24T02:07:19;7.20;;;5.35;;
45065;SDS011;30830;53.704;10.004;2023-04-24T02:09:45;5.07;;;4.57;;
45065;SDS011;30830;53.704;10.004;2023-04-24T02:12:10;6.15;;;4.43;;
45065;SDS011;30830;53.704;10.004;2023-04-24T02:14:36;4.78;;;4.25;;
45065;SDS011;30830;53.704;10.004;2023-04-24T02:17:01;7.35;;;4.50;;
45065;SDS011;30830;53.704;10.004;2023-04-24T02:19:27;5.25;;;3.53;;
45065;SDS011;30830;53.704;10.004;2023-04-24T02:21:52;3.92;;;3.53;;
45065;SDS011;30830;53.704;10.004;2023-04-24T02:24:18;3.83;;;3.47;;
45065;SDS011;30830;53.704;10.004;2023-04-24T02:26:43;3.33;;;3.03;;
45065;SDS011;30830;53.704;10.004;2023-04-24T02:29:09;4.13;;;3.25;;
45065;SDS011;30830;53.704;10.004;2023-04-24T02:31:35;3.50;;;3.20;;
45065;SDS011;30830;53.704;10.004;2023-04-24T02:34:01;4.57;;;2.80;;
45065;SDS011;30830;53.704;10.004;2023-04-24T02:36:26;3.08;;;2.78;;
45065;SDS011;30830;53.704;10.004;2023-04-24T02:38:52;3.35;;;2.70;;
45065;SDS011;30830;53.704;10.004;2023-04-24T02:41:17;2.20;;;2.00;;
45065;SDS011;30830;53.704;10.004;2023-04-24T02:43:43;2.20;;;2.00;;
45065;SDS011;30830;53.704;10.004;2023-04-24T02:46:08;4.03;;;2.10;;
45065;SDS011;30830;53.704;10.004;2023-04-24T02:48:34;2.53;;;1.85;;
45065;SDS011;30830;53.704;10.004;2023-04-24T02:50:59;2.15;;;1.95;;
45065;SDS011;30830;53.704;10.004;2023-04-24T02:53:25;2.10;;;1.90;;
45065;SDS011;30830;53.704;10.004;2023-04-24T02:55:51;2.20;;;1.98;;
45065;SDS011;30830;53.704;10.004;2023-04-24T02:58:16;2.22;;;1.85;;
45065;SDS011;30830;53.704;10.004;2023-04-24T03:00:42;2.83;;;1.73;;
45065;SDS011;30830;53.704;10.004;2023-04-24T03:03:08;1.92;;;1.80;;
45065;SDS011;30830;53.704;10.004;2023-04-24T03:05:34;2.00;;;1.80;;
45065;SDS011;30830;53.704;10.004;2023-04-24T03:08:00;1.55;;;1.45;;
45065;SDS011;30830;53.704;10.004;2023-04-24T03:10:25;1.70;;;1.60;;
45065;SDS011;30830;53.704;10.004;2023-04-24T03:12:51;2.15;;;1.88;;
45065;SDS011;30830;53.704;10.004;2023-04-24T03:15:16;2.35;;;2.10;;
45065;SDS011;30830;53.704;10.004;2023-04-24T03:17:42;2.33;;;2.13;;
45065;SDS011;30830;53.704;10.004;2023-04-24T03:20:08;3.30;;;2.15;;
45065;SDS011;30830;53.704;10.004;2023-04-24T03:22:34;2.53;;;2.33;;
45065;SDS011;30830;53.704;10.004;2023-04-24T03:25:00;2.53;;;2.33;;
45065;SDS011;30830;53.704;10.004;2023-04-24T03:27:26;2.17;;;2.00;;
45065;SDS011;30830;53.704;10.004;2023-04-24T03:29:52;2.83;;;2.60;;
45065;SDS011;30830;53.704;10.004;2023-04-24T03:32:20;2.38;;;2.13;;
45065;SDS011;30830;53.704;10.004;2023-04-24T03:34:47;2.10;;;1.90;;
45065;SDS011;30830;53.704;10.004;2023-04-24T03:37:13;2.05;;;1.85;;
45065;SDS011;30830;53.704;10.004;2023-04-24T03:39:38;2.30;;;2.10;;
45065;SDS011;30830;53.704;10.004;2023-04-24T03:42:04;2.55;;;2.20;;
45065;SDS011;30830;53.704;10.004;2023-04-24T03:44:29;2.78;;;1.83;;
45065;SDS011;30830;53.704;10.004;2023-04-24T03:46:55;2.45;;;2.00;;
45065;SDS011;30830;53.704;10.004;2023-04-24T03:49:20;2.25;;;2.03;;
45065;SDS011;30830;53.704;10.004;2023-04-24T03:51:47;2.30;;;2.10;;
45065;SDS011;30830;53.704;10.004;2023-04-24T03:54:12;2.75;;;2.33;;
45065;SDS011;30830;53.704;10.004;2023-04-24T03:56:38;3.33;;;2.20;;
45065;SDS011;30830;53.704;10.004;2023-04-24T03:59:04;2.92;;;2.33;;
45065;SDS011;30830;53.704;10.004;2023-04-24T04:01:29;2.30;;;1.77;;
45065;SDS011;30830;53.704;10.004;2023-04-24T04:03:55;5.20;;;2.40;;
45065;SDS011;30830;53.704;10.004;2023-04-24T04:06:21;2.30;;;2.08;;
45065;SDS011;30830;53.704;10.004;2023-04-24T04:08:46;2.00;;;1.80;;
45065;SDS011;30830;53.704;10.004;2023-04-24T04:11:12;2.28;;;1.70;;
45065;SDS011;30830;53.704;10.004;2023-04-24T04:13:38;3.45;;;2.30;;
45065;SDS011;30830;53.704;10.004;2023-04-24T04:16:03;4.38;;;2.28;;
45065;SDS011;30830;53.704;10.004;2023-04-24T04:18:29;4.57;;;2.40;;
45065;SDS011;30830;53.704;10.004;2023-04-24T04:20:55;3.35;;;2.03;;
45065;SDS011;30830;53.704;10.004;2023-04-24T04:23:22;2.88;;;2.22;;
45065;SDS011;30830;53.704;10.004;2023-04-24T04:25:47;2.83;;;2.15;;
45065;SDS011;30830;53.704;10.004;2023-04-24T04:28:13;2.08;;;1.90;;
45065;SDS011;30830;53.704;10.004;2023-04-24T04:30:38;2.65;;;2.47;;
45065;SDS011;30830;53.704;10.004;2023-04-24T04:33:05;2.15;;;2.03;;
45065;SDS011;30830;53.704;10.004;2023-04-24T04:35:30;2.90;;;2.10;;
45065;SDS011;30830;53.704;10.004;2023-04-24T04:37:56;2.20;;;2.00;;
45065;SDS011;30830;53.704;10.004;2023-04-24T04:40:23;1.83;;;1.73;;
45065;SDS011;30830;53.704;10.004;2023-04-24T04:42:49;1.60;;;1.50;;
45065;SDS011;30830;53.704;10.004;2023-04-24T04:45:17;2.25;;;2.05;;
45065;SDS011;30830;53.704;10.004;2023-04-24T04:47:43;1.67;;;1.58;;
45065;SDS011;30830;53.704;10.004;2023-04-24T04:50:09;2.13;;;1.80;;
45065;SDS011;30830;53.704;10.004;2023-04-24T04:52:35;1.52;;;1.42;;
45065;SDS011;30830;53.704;10.004;2023-04-24T04:55:04;1.63;;;1.50;;
45065;SDS011;30830;53.704;10.004;2023-04-24T04:57:30;1.85;;;1.63;;
45065;SDS011;30830;53.704;10.004;2023-04-24T04:59:56;1.90;;;1.67;;
45065;SDS011;30830;53.704;10.004;2023-04-24T05:02:21;1.73;;;1.60;;
45065;SDS011;30830;53.704;10.004;2023-04-24T05:04:47;2.35;;;1.80;;
45065;SDS011;30830;53.704;10.004;2023-04-24T05:07:12;1.60;;;1.50;;
45065;SDS011;30830;53.704;10.004;2023-04-24T05:09:38;2.28;;;2.08;;
45065;SDS011;30830;53.704;10.004;2023-04-24T05:12:03;1.98;;;1.30;;
45065;SDS011;30830;53.704;10.004;2023-04-24T05:14:29;1.55;;;1.45;;
45065;SDS011;30830;53.704;10.004;2023-04-24T05:16:55;2.85;;;1.42;;
45065;SDS011;30830;53.704;10.004;2023-04-24T05:19:20;2.70;;;1.40;;
45065;SDS011;30830;53.704;10.004;2023-04-24T05:21:46;1.67;;;1.20;;
45065;SDS011;30830;53.704;10.004;2023-04-24T05:24:11;1.30;;;1.20;;
45065;SDS011;30830;53.704;10.004;2023-04-24T05:26:37;1.30;;;1.20;;
45065;SDS011;30830;53.704;10.004;2023-04-24T05:29:02;1.55;;;1.20;;
45065;SDS011;30830;53.704;10.004;2023-04-24T05:31:28;3.00;;;1.40;;
45065;SDS011;30830;53.704;10.004;2023-04-24T05:33:55;1.50;;;1.25;;
45065;SDS011;30830;53.704;10.004;2023-04-24T05:36:21;2.13;;;1.40;;
45065;SDS011;30830;53.704;10.004;2023-04-24T05:38:46;2.28;;;1.52;;
45065;SDS011;30830;53.704;10.004;2023-04-24T05:41:12;1.38;;;1.27;;
45065;SDS011;30830;53.704;10.004;2023-04-24T05:43:37;1.55;;;1.40;;
45065;SDS011;30830;53.704;10.004;2023-04-24T05:46:03;1.70;;;1.45;;
45065;SDS011;30830;53.704;10.004;2023-04-24T05:48:28;2.10;;;1.40;;
45065;SDS011;30830;53.704;10.004;2023-04-24T05:50:54;1.98;;;1.48;;
45065;SDS011;30830;53.704;10.004;2023-04-24T05:53:20;1.30;;;1.20;;
45065;SDS011;30830;53.704;10.004;2023-04-24T05:55:45;1.25;;;1.00;;
45065;SDS011;30830;53.704;10.004;2023-04-24T05:58:12;1.90;;;1.52;;
45065;SDS011;30830;53.704;10.004;2023-04-24T06:00:37;1.67;;;1.50;;
45065;SDS011;30830;53.704;10.004;2023-04-24T06:03:04;1.40;;;1.27;;
45065;SDS011;30830;53.704;10.004;2023-04-24T06:05:30;4.63;;;1.85;;
45065;SDS011;30830;53.704;10.004;2023-04-24T06:07:56;1.33;;;1.23;;
45065;SDS011;30830;53.704;10.004;2023-04-24T06:10:21;1.38;;;1.15;;
45065;SDS011;30830;53.704;10.004;2023-04-24T06:12:47;3.38;;;1.58;;
45065;SDS011;30830;53.704;10.004;2023-04-24T06:15:12;2.58;;;1.52;;
45065;SDS011;30830;53.704;10.004;2023-04-24T06:17:38;1.85;;;1.40;;
45065;SDS011;30830;53.704;10.004;2023-04-24T06:20:04;1.42;;;1.33;;
45065;SDS011;30830;53.704;10.004;2023-04-24T06:22:31;1.55;;;1.42;;
45065;SDS011;30830;53.704;10.004;2023-04-24T06:24:57;1.92;;;1.73;;
45065;SDS011;30830;53.704;10.004;2023-04-24T06:27:22;1.98;;;1.52;;
45065;SDS011;30830;53.704;10.004;2023-04-24T06:29:48;1.35;;;1.25;;
45065;SDS011;30830;53.704;10.004;2023-04-24T06:32:19;2.25;;;1.63;;
45065;SDS011;30830;53.704;10.004;2023-04-24T06:34:48;2.97;;;1.67;;
45065;SDS011;30830;53.704;10.004;2023-04-24T06:37:15;1.67;;;1.58;;
45065;SDS011;30830;53.704;10.004;2023-04-24T06:39:41;1.58;;;1.48;;
45065;SDS011;30830;53.704;10.004;2023-04-24T06:42:07;1.63;;;1.52;;
45065;SDS011;30830;53.704;10.004;2023-04-24T06:44:34;1.60;;;1.50;;
45065;SDS011;30830;53.704;10.004;2023-04-24T06:47:05;2.17;;;1.23;;
45065;SDS011;30830;53.704;10.004;2023-04-24T06:49:35;3.00;;;1.27;;
45065;SDS011;30830;53.704;10.004;2023-04-24T06:52:01;2.95;;;1.50;;
45065;SDS011;30830;53.704;10.004;2023-04-24T06:54:28;2.97;;;0.93;;
45065;SDS011;30830;53.704;10.004;2023-04-24T06:56:54;1.30;;;1.13;;
45065;SDS011;30830;53.704;10.004;2023-04-24T06:59:20;2.08;;;1.30;;
45065;SDS011;30830;53.704;10.004;2023-04-24T07:01:46;1.27;;;1.17;;
45065;SDS011;30830;53.704;10.004;2023-04-24T07:04:11;1.10;;;0.90;;
45065;SDS011;30830;53.704;10.004;2023-04-24T07:06:38;1.95;;;1.40;;
45065;SDS011;30830;53.704;10.004;2023-04-24T07:09:04;0.95;;;0.95;;
45065;SDS011;30830;53.704;10.004;2023-04-24T07:11:29;1.30;;;1.20;;
45065;SDS011;30830;53.704;10.004;2023-04-24T07:13:55;1.23;;;0.93;;
45065;SDS011;30830;53.704;10.004;2023-04-24T07:16:21;2.88;;;1.40;;
45065;SDS011;30830;53.704;10.004;2023-04-24T07:18:46;1.38;;;1.27;;
45065;SDS011;30830;53.704;10.004;2023-04-24T07:21:12;1.38;;;1.27;;
45065;SDS011;30830;53.704;10.004;2023-04-24T07:23:38;1.88;;;1.40;;
45065;SDS011;30830;53.704;10.004;2023-04-24T07:26:03;2.03;;;1.83;;
45065;SDS011;30830;53.704;10.004;2023-04-24T07:28:29;2.45;;;1.95;;
45065;SDS011;30830;53.704;10.004;2023-04-24T07:30:56;2.90;;;1.90;;
45065;SDS011;30830;53.704;10.004;2023-04-24T07:33:22;1.60;;;1.48;;
45065;SDS011;30830;53.704;10.004;2023-04-24T07:35:48;2.40;;;2.03;;
45065;SDS011;30830;53.704;10.004;2023-04-24T07:38:13;3.70;;;2.38;;
45065;SDS011;30830;53.704;10.004;2023-04-24T07:40:39;3.40;;;2.13;;
45065;SDS011;30830;53.704;10.004;2023-04-24T07:43:05;2.42;;;2.00;;
45065;SDS011;30830;53.704;10.004;2023-04-24T07:45:30;1.90;;;1.80;;
45065;SDS011;30830;53.704;10.004;2023-04-24T07:47:56;3.25;;;2.95;;
45065;SDS011;30830;53.704;10.004;2023-04-24T07:50:22;2.83;;;2.20;;
45065;SDS011;30830;53.704;10.004;2023-04-24T07:52:47;2.60;;;2.40;;
45065;SDS011;30830;53.704;10.004;2023-04-24T07:55:13;2.50;;;2.30;;
45065;SDS011;30830;53.704;10.004;2023-04-24T07:57:39;2.30;;;2.20;;
45065;SDS011;30830;53.704;10.004;2023-04-24T08:00:06;2.85;;;2.47;;
45065;SDS011;30830;53.704;10.004;2023-04-24T08:02:32;2.65;;;2.30;;
45065;SDS011;30830;53.704;10.004;2023-04-24T08:04:58;2.88;;;2.67;;
45065;SDS011;30830;53.704;10.004;2023-04-24T08:07:24;3.75;;;3.08;;
45065;SDS011;30830;53.704;10.004;2023-04-24T08:09:49;3.70;;;2.92;;
45065;SDS011;30830;53.704;10.004;2023-04-24T08:12:15;3.00;;;2.80;;
45065;SDS011;30830;53.704;10.004;2023-04-24T08:14:40;4.40;;;3.13;;
45065;SDS011;30830;53.704;10.004;2023-04-24T08:17:06;3.15;;;2.88;;
45065;SDS011;30830;53.704;10.004;2023-04-24T08:19:31;3.13;;;2.83;;
45065;SDS011;30830;53.704;10.004;2023-04-24T08:21:57;4.13;;;2.78;;
45065;SDS011;30830;53.704;10.004;2023-04-24T08:24:22;3.22;;;2.88;;
45065;SDS011;30830;53.704;10.004;2023-04-24T08:26:48;3.05;;;2.75;;
45065;SDS011;30830;53.704;10.004;2023-04-24T08:29:18;3.67;;;3.38;;
45065;SDS011;30830;53.704;10.004;2023-04-24T08:31:44;3.40;;;3.20;;
45065;SDS011;30830;53.704;10.004;2023-04-24T08:34:09;3.45;;;3.15;;
45065;SDS011;30830;53.704;10.004;2023-04-24T08:36:35;3.95;;;3.00;;
45065;SDS011;30830;53.704;10.004;2023-04-24T08:39:02;3.50;;;3.28;;
45065;SDS011;30830;53.704;10.004;2023-04-24T08:41:27;3.70;;;3.38;;
45065;SDS011;30830;53.704;10.004;2023-04-24T08:43:53;2.92;;;2.63;;
45065;SDS011;30830;53.704;10.004;2023-04-24T08:46:20;2.50;;;2.30;;
45065;SDS011;30830;53.704;10.004;2023-04-24T08:48:46;2.70;;;2.40;;
45065;SDS011;30830;53.704;10.004;2023-04-24T08:51:12;3.15;;;2.95;;
45065;SDS011;30830;53.704;10.004;2023-04-24T08:53:38;4.80;;;3.55;;
45065;SDS011;30830;53.704;10.004;2023-04-24T08:56:04;4.07;;;3.58;;
45065;SDS011;30830;53.704;10.004;2023-04-24T08:58:31;4.60;;;4.20;;
45065;SDS011;30830;53.704;10.004;2023-04-24T09:00:57;3.58;;;3.28;;
45065;SDS011;30830;53.704;10.004;2023-04-24T09:03:24;4.03;;;3.55;;
45065;SDS011;30830;53.704;10.004;2023-04-24T09:05:51;4.43;;;4.03;;
45065;SDS011;30830;53.704;10.004;2023-04-24T09:08:18;3.92;;;3.50;;
45065;SDS011;30830;53.704;10.004;2023-04-24T09:10:44;4.20;;;3.90;;
45065;SDS011;30830;53.704;10.004;2023-04-24T09:13:10;3.85;;;3.55;;
45065;SDS011;30830;53.704;10.004;2023-04-24T09:15:37;4.20;;;3.90;;
45065;SDS011;30830;53.704;10.004;2023-04-24T09:18:03;5.10;;;3.90;;
45065;SDS011;30830;53.704;10.004;2023-04-24T09:20:30;4.45;;;4.05;;
45065;SDS011;30830;53.704;10.004;2023-04-24T09:22:56;5.13;;;4.65;;
45065;SDS011;30830;53.704;10.004;2023-04-24T09:25:23;3.92;;;3.63;;
45065;SDS011;30830;53.704;10.004;2023-04-24T09:28:04;5.15;;;4.75;;
45065;SDS011;30830;53.704;10.004;2023-04-24T09:30:31;4.50;;;4.20;;
45065;SDS011;30830;53.704;10.004;2023-04-24T09:33:15;5.40;;;4.47;;
45065;SDS011;30830;53.704;10.004;2023-04-24T09:35:41;5.22;;;4.70;;
45065;SDS011;30830;53.704;10.004;2023-04-24T09:38:14;5.30;;;4.78;;
45065;SDS011;30830;53.704;10.004;2023-04-24T09:40:40;5.15;;;4.57;;
45065;SDS011;30830;53.704;10.004;2023-04-24T09:43:09;5.63;;;5.10;;
45065;SDS011;30830;53.704;10.004;2023-04-24T09:45:36;5.35;;;4.85;;
45065;SDS011;30830;53.704;10.004;2023-04-24T09:48:04;5.25;;;4.75;;
45065;SDS011;30830;53.704;10.004;2023-04-24T09:50:31;5.40;;;4.90;;
45065;SDS011;30830;53.704;10.004;2023-04-24T09:52:58;5.18;;;4.60;;
45065;SDS011;30830;53.704;10.004;2023-04-24T09:55:26;4.43;;;4.03;;
45065;SDS011;30830;53.704;10.004;2023-04-24T09:57:56;4.82;;;4.32;;
45065;SDS011;30830;53.704;10.004;2023-04-24T10:00:26;5.10;;;4.47;;
45065;SDS011;30830;53.704;10.004;2023-04-24T10:02:54;4.72;;;4.22;;
45065;SDS011;30830;53.704;10.004;2023-04-24T10:05:28;5.15;;;4.65;;
45065;SDS011;30830;53.704;10.004;2023-04-24T10:07:56;4.82;;;4.38;;
45065;SDS011;30830;53.704;10.004;2023-04-24T10:10:23;4.45;;;4.05;;
45065;SDS011;30830;53.704;10.004;2023-04-24T10:12:48;5.63;;;5.13;;
45065;SDS011;30830;53.704;10.004;2023-04-24T10:15:16;5.70;;;5.20;;
45065;SDS011;30830;53.704;10.004;2023-04-24T10:17:45;5.88;;;4.90;;
45065;SDS011;30830;53.704;10.004;2023-04-24T10:20:24;5.90;;;5.20;;
45065;SDS011;30830;53.704;10.004;2023-04-24T10:22:52;6.50;;;5.60;;
45065;SDS011;30830;53.704;10.004;2023-04-24T10:25:19;6.80;;;5.63;;
45065;SDS011;30830;53.704;10.004;2023-04-24T10:27:46;5.72;;;5.22;;
45065;SDS011;30830;53.704;10.004;2023-04-24T10:30:13;5.75;;;5.25;;
45065;SDS011;30830;53.704;10.004;2023-04-24T10:32:39;6.78;;;5.40;;
45065;SDS011;30830;53.704;10.004;2023-04-24T10:35:08;6.30;;;5.70;;
45065;SDS011;30830;53.704;10.004;2023-04-24T10:37:36;6.88;;;6.18;;
45065;SDS011;30830;53.704;10.004;2023-04-24T10:40:05;6.90;;;6.20;;
45065;SDS011;30830;53.704;10.004;2023-04-24T10:42:32;6.97;;;6.15;;
45065;SDS011;30830;53.704;10.004;2023-04-24T10:44:58;7.13;;;6.32;;
45065;SDS011;30830;53.704;10.004;2023-04-24T10:47:26;7.13;;;6.35;;
45065;SDS011;30830;53.704;10.004;2023-04-24T10:49:52;7.60;;;6.82;;
45065;SDS011;30830;53.704;10.004;2023-04-24T10:52:18;8.05;;;7.25;;
45065;SDS011;30830;53.704;10.004;2023-04-24T10:54:45;9.07;;;7.10;;
45065;SDS011;30830;53.704;10.004;2023-04-24T11:02:35;8.38;;;7.53;;
45065;SDS011;30830;53.704;10.004;2023-04-24T11:05:03;7.55;;;6.57;;
45065;SDS011;30830;53.704;10.004;2023-04-24T11:07:29;8.05;;;7.25;;
45065;SDS011;30830;53.704;10.004;2023-04-24T11:10:00;10.52;;;7.13;;
45065;SDS011;30830;53.704;10.004;2023-04-24T11:12:28;9.30;;;6.85;;
45065;SDS011;30830;53.704;10.004;2023-04-24T11:20:00;8.52;;;7.70;;
45065;SDS011;30830;53.704;10.004;2023-04-24T11:22:28;9.77;;;7.28;;
45065;SDS011;30830;53.704;10.004;2023-04-24T11:24:58;8.45;;;7.03;;
45065;SDS011;30830;53.704;10.004;2023-04-24T11:27:27;8.85;;;7.00;;
45065;SDS011;30830;53.704;10.004;2023-04-24T11:30:04;10.40;;;7.47;;
45065;SDS011;30830;53.704;10.004;2023-04-24T11:35:03;10.38;;;7.47;;
45065;SDS011;30830;53.704;10.004;2023-04-24T11:37:42;8.32;;;7.38;;
45065;SDS011;30830;53.704;10.004;2023-04-24T11:40:12;8.25;;;7.45;;
45065;SDS011;30830;53.704;10.004;2023-04-24T11:42:46;9.85;;;7.93;;
45065;SDS011;30830;53.704;10.004;2023-04-24T11:45:13;7.90;;;7.10;;
45065;SDS011;30830;53.704;10.004;2023-04-24T11:47:40;8.20;;;7.43;;
45065;SDS011;30830;53.704;10.004;2023-04-24T11:50:08;8.68;;;7.78;;
45065;SDS011;30830;53.704;10.004;2023-04-24T11:52:39;8.25;;;6.88;;
45065;SDS011;30830;53.704;10.004;2023-04-24T11:57:39;8.65;;;7.78;;
45065;SDS011;30830;53.704;10.004;2023-04-24T12:00:09;11.02;;;7.80;;
45065;SDS011;30830;53.704;10.004;2023-04-24T12:02:40;10.35;;;7.30;;
45065;SDS011;30830;53.704;10.004;2023-04-24T12:05:05;10.68;;;7.70;;
45065;SDS011;30830;53.704;10.004;2023-04-24T12:07:31;8.15;;;7.43;;
45065;SDS011;30830;53.704;10.004;2023-04-24T12:10:08;8.23;;;7.43;;
45065;SDS011;30830;53.704;10.004;2023-04-24T12:12:34;8.13;;;7.32;;
45065;SDS011;30830;53.704;10.004;2023-04-24T12:15:00;10.35;;;7.97;;
45065;SDS011;30830;53.704;10.004;2023-04-24T12:17:32;8.80;;;7.90;;
45065;SDS011;30830;53.704;10.004;2023-04-24T12:20:07;8.55;;;7.70;;
45065;SDS011;30830;53.704;10.004;2023-04-24T12:25:03;8.32;;;6.95;;
45065;SDS011;30830;53.704;10.004;2023-04-24T12:27:31;7.30;;;6.38;;
45065;SDS011;30830;53.704;10.004;2023-04-24T12:29:58;7.03;;;5.70;;
45065;SDS011;30830;53.704;10.004;2023-04-24T12:32:25;7.30;;;6.03;;
45065;SDS011;30830;53.704;10.004;2023-04-24T12:34:51;6.38;;;5.28;;
45065;SDS011;30830;53.704;10.004;2023-04-24T12:37:18;8.18;;;6.53;;
45065;SDS011;30830;53.704;10.004;2023-04-24T12:40:03;7.07;;;5.32;;
45065;SDS011;30830;53.704;10.004;2023-04-24T12:42:31;6.35;;;5.22;;
45065;SDS011;30830;53.704;10.004;2023-04-24T12:44:58;9.57;;;5.57;;
45065;SDS011;30830;53.704;10.004;2023-04-24T12:47:25;6.38;;;5.50;;
45065;SDS011;30830;53.704;10.004;2023-04-24T12:49:51;5.88;;;5.35;;
45065;SDS011;30830;53.704;10.004;2023-04-24T12:52:17;6.97;;;5.97;;
45065;SDS011;30830;53.704;10.004;2023-04-24T12:54:45;6.25;;;5.65;;
45065;SDS011;30830;53.704;10.004;2023-04-24T12:57:11;7.93;;;5.63;;
45065;SDS011;30830;53.704;10.004;2023-04-24T12:59:37;8.07;;;5.45;;
45065;SDS011;30830;53.704;10.004;2023-04-24T13:02:04;6.38;;;5.82;;
45065;SDS011;30830;53.704;10.004;2023-04-24T13:04:31;6.22;;;5.60;;
45065;SDS011;30830;53.704;10.004;2023-04-24T13:06:57;6.32;;;5.50;;
45065;SDS011;30830;53.704;10.004;2023-04-24T13:09:22;6.30;;;5.70;;
45065;SDS011;30830;53.704;10.004;2023-04-24T13:11:49;6.18;;;5.40;;
45065;SDS011;30830;53.704;10.004;2023-04-24T13:14:15;5.43;;;4.93;;
45065;SDS011;30830;53.704;10.004;2023-04-24T13:16:40;5.97;;;5.38;;
45065;SDS011;30830;53.704;10.004;2023-04-24T13:19:06;7.05;;;5.10;;
45065;SDS011;30830;53.704;10.004;2023-04-24T13:21:32;5.45;;;5.00;;
45065;SDS011;30830;53.704;10.004;2023-04-24T13:23:57;5.10;;;4.63;;
45065;SDS011;30830;53.704;10.004;2023-04-24T13:26:23;4.85;;;3.85;;
45065;SDS011;30830;53.704;10.004;2023-04-24T13:28:49;5.15;;;4.63;;
45065;SDS011;30830;53.704;10.004;2023-04-24T13:31:15;4.90;;;4.50;;
45065;SDS011;30830;53.704;10.004;2023-04-24T13:33:41;4.90;;;4.35;;
45065;SDS011;30830;53.704;10.004;2023-04-24T13:36:06;5.03;;;4.25;;
45065;SDS011;30830;53.704;10.004;2023-04-24T13:38:32;7.30;;;4.28;;
45065;SDS011;30830;53.704;10.004;2023-04-24T13:40:58;4.30;;;3.90;;
45065;SDS011;30830;53.704;10.004;2023-04-24T13:43:23;5.50;;;4.47;;
45065;SDS011;30830;53.704;10.004;2023-04-24T13:45:49;4.47;;;4.07;;
45065;SDS011;30830;53.704;10.004;2023-04-24T13:48:15;5.60;;;5.10;;
45065;SDS011;30830;53.704;10.004;2023-04-24T13:50:41;5.95;;;4.68;;
45065;SDS011;30830;53.704;10.004;2023-04-24T13:53:07;5.50;;;4.53;;
45065;SDS011;30830;53.704;10.004;2023-04-24T13:55:33;5.07;;;4.68;;
45065;SDS011;30830;53.704;10.004;2023-04-24T13:57:59;5.93;;;4.70;;
45065;SDS011;30830;53.704;10.004;2023-04-24T14:00:26;5.80;;;4.75;;
45065;SDS011;30830;53.704;10.004;2023-04-24T14:02:52;5.88;;;5.38;;
45065;SDS011;30830;53.704;10.004;2023-04-24T14:05:18;6.07;;;5.13;;
45065;SDS011;30830;53.704;10.004;2023-04-24T14:07:43;5.75;;;5.20;;
45065;SDS011;30830;53.704;10.004;2023-04-24T14:10:09;4.82;;;4.43;;
45065;SDS011;30830;53.704;10.004;2023-04-24T14:12:35;5.15;;;4.68;;
45065;SDS011;30830;53.704;10.004;2023-04-24T14:15:01;5.38;;;4.88;;
45065;SDS011;30830;53.704;10.004;2023-04-24T14:17:27;5.43;;;4.93;;
45065;SDS011;30830;53.704;10.004;2023-04-24T14:19:53;5.47;;;4.97;;
45065;SDS011;30830;53.704;10.004;2023-04-24T14:22:21;6.93;;;5.38;;
45065;SDS011;30830;53.704;10.004;2023-04-24T14:24:46;4.93;;;4.53;;
45065;SDS011;30830;53.704;10.004;2023-04-24T14:27:12;6.25;;;5.65;;
45065;SDS011;30830;53.704;10.004;2023-04-24T14:29:38;4.78;;;4.38;;
45065;SDS011;30830;53.704;10.004;2023-04-24T14:32:03;5.38;;;4.88;;
45065;SDS011;30830;53.704;10.004;2023-04-24T14:34:29;5.78;;;5.28;;
45065;SDS011;30830;53.704;10.004;2023-04-24T14:36:55;5.30;;;4.80;;
45065;SDS011;30830;53.704;10.004;2023-04-24T14:39:20;7.07;;;6.38;;
45065;SDS011;30830;53.704;10.004;2023-04-24T14:41:46;7.93;;;7.13;;
45065;SDS011;30830;53.704;10.004;2023-04-24T14:44:12;8.63;;;7.07;;
45065;SDS011;30830;53.704;10.004;2023-04-24T14:46:37;7.47;;;6.78;;